Time;durP1;ratioP1;P1;durP2;ratioP2;P2;SDS_P1;SDS_P2;PMS_P1;PMS_P2;Temp;Humidity;BMP_temperature;BMP_pressure;BME280_temperature;BME280_humidity;BME280_pressure;Samples;Min_cycle;Max_cycle;Signal;HPM_P1;HPM_P2
2022/10/10 00:00:51;;;;;;;33.13;20.40;;;;;;;40.52;35.11;101225.31;5134823;27;20408;-71
2022/10/10 00:03:19;;;;;;;37.47;19.20;;;;;;;40.29;35.37;101216.41;5133156;27;20494;-71
2022/10/10 00:05:45;;;;;;;37.13;20.80;;;;;;;40.52;34.96;101211.72;5133107;27;20423;-72
2022/10/10 00:08:12;;;;;;;31.20;19.30;;;;;;;40.53;35.11;101220.69;5133178;27;20580;-71
2022/10/10 00:10:38;;;;;;;26.03;21.23;;;;;;;40.51;35.27;101217.47;5133008;27;20507;-71
2022/10/10 00:13:05;;;;;;;30.07;21.23;;;;;;;40.40;35.10;101221.59;5132782;27;20420;-71
2022/10/10 00:15:31;;;;;;;27.03;18.40;;;;;;;40.32;35.71;101209.53;5132839;27;20506;-71
2022/10/10 00:17:57;;;;;;;33.37;20.83;;;;;;;40.29;35.38;101200.09;5132769;27;20439;-71
2022/10/10 00:20:23;;;;;;;31.87;20.47;;;;;;;40.30;35.48;101181.88;5132958;27;20490;-71
2022/10/10 00:22:49;;;;;;;24.37;19.83;;;;;;;40.35;35.69;101178.22;5132804;27;20858;-72
2022/10/10 00:25:15;;;;;;;30.33;17.73;;;;;;;40.26;35.59;101176.25;5132768;27;20451;-71
2022/10/10 00:27:41;;;;;;;29.63;18.17;;;;;;;40.33;35.36;101170.41;5132711;27;20487;-71
2022/10/10 00:30:08;;;;;;;29.57;18.47;;;;;;;40.40;35.25;101159.06;5133020;27;20431;-71
2022/10/10 00:32:35;;;;;;;27.97;17.80;;;;;;;39.89;36.02;101165.88;5132654;27;20446;-71
2022/10/10 00:35:03;;;;;;;33.13;18.00;;;;;;;39.20;37.06;101161.59;5132606;27;20454;-71
2022/10/10 00:37:29;;;;;;;26.17;16.70;;;;;;;39.80;36.23;101149.53;5132526;27;20423;-71
2022/10/10 00:39:55;;;;;;;25.33;16.33;;;;;;;40.14;35.82;101142.66;5133233;27;20834;-71
2022/10/10 00:42:21;;;;;;;30.80;17.30;;;;;;;38.61;38.11;101133.59;5132430;27;20422;-71
2022/10/10 00:45:25;;;;;;;32.43;17.07;;;;;;;39.14;37.73;101138.38;5132370;27;20435;-71
2022/10/10 00:47:59;;;;;;;24.53;14.13;;;;;;;39.73;36.15;101117.41;5134143;27;20460;-71
2022/10/10 00:50:27;;;;;;;24.83;15.33;;;;;;;38.94;37.56;101128.81;5134095;27;20419;-71
2022/10/10 00:52:54;;;;;;;22.20;14.67;;;;;;;38.44;38.70;101123.38;5132252;27;20445;-71
2022/10/10 00:55:20;;;;;;;25.60;13.57;;;;;;;39.37;37.02;101128.34;5132300;27;20435;-71
2022/10/10 00:57:48;;;;;;;21.10;15.47;;;;;;;39.03;37.42;101130.78;5132270;27;20495;-71
2022/10/10 01:00:14;;;;;;;31.60;16.63;;;;;;;39.56;36.67;101119.19;5132104;27;20421;-71
2022/10/10 01:02:40;;;;;;;23.77;14.47;;;;;;;39.88;35.92;101112.66;5132288;27;20446;-71
2022/10/10 01:05:07;;;;;;;19.93;14.47;;;;;;;39.96;35.69;101104.56;5133801;27;20832;-72
2022/10/10 01:07:33;;;;;;;24.20;15.97;;;;;;;40.12;35.81;101110.38;5132061;28;20482;-71
2022/10/10 01:10:10;;;;;;;23.10;14.33;;;;;;;40.18;35.13;101106.38;5132154;28;20423;-71
2022/10/10 01:12:48;;;;;;;23.20;13.07;;;;;;;39.50;36.40;101113.09;5132204;28;20942;-71
2022/10/10 01:15:39;;;;;;;30.70;15.73;;;;;;;39.59;36.55;101111.22;5131783;28;20475;-71
2022/10/10 01:18:43;;;;;;;31.03;14.40;;;;;;;39.10;37.17;101118.41;5132027;28;20511;-71
2022/10/10 01:21:12;;;;;;;20.93;14.10;;;;;;;39.97;36.11;101106.16;5132039;28;20560;-71
2022/10/10 01:24:01;;;;;;;22.13;14.30;;;;;;;39.68;36.15;101108.59;5132077;28;20419;-71
2022/10/10 01:26:36;;;;;;;25.00;13.83;;;;;;;39.94;35.94;101106.75;5131991;28;20990;-72
2022/10/10 01:29:13;;;;;;;24.60;14.50;;;;;;;39.97;35.95;101105.34;5133734;27;20454;-71
2022/10/10 01:31:44;;;;;;;28.27;17.50;;;;;;;39.47;36.73;101105.56;5131860;28;20833;-71
2022/10/10 01:34:13;;;;;;;22.30;14.90;;;;;;;39.97;35.80;101106.16;5131890;28;20466;-71
2022/10/10 01:37:16;;;;;;;23.80;15.07;;;;;;;40.21;35.62;101107.69;5131816;28;20442;-71
2022/10/10 01:40:03;;;;;;;24.23;12.67;;;;;;;39.80;35.96;101087.06;5133306;27;20446;-71
2022/10/10 01:42:44;;;;;;;21.17;13.10;;;;;;;39.83;35.89;101085.63;5131662;28;20422;-72
2022/10/10 01:45:10;;;;;;;25.30;12.77;;;;;;;39.83;35.80;101075.56;5131844;28;20407;-71
2022/10/10 01:47:36;;;;;;;24.30;15.17;;;;;;;40.12;35.65;101077.75;5131689;28;20863;-72
2022/10/10 01:50:08;;;;;;;21.57;15.00;;;;;;;39.84;35.58;101076.34;5131854;28;20419;-71
2022/10/10 01:52:49;;;;;;;18.10;13.03;;;;;;;40.02;35.54;101080.72;5131812;28;20507;-71
2022/10/10 01:55:45;;;;;;;24.53;16.13;;;;;;;39.94;35.31;101076.88;5131747;28;20478;-71
2022/10/10 01:58:54;;;;;;;24.33;13.67;;;;;;;40.15;35.17;101079.06;5131827;28;20457;-71
2022/10/10 02:01:39;;;;;;;22.67;13.60;;;;;;;40.25;35.15;101084.19;5077904;28;20427;-71
2022/10/10 02:04:19;;;;;;;22.20;12.27;;;;;;;40.08;35.25;101079.50;5131479;28;20415;-71
2022/10/10 02:07:02;;;;;;;23.00;15.17;;;;;;;40.19;35.01;101086.25;5131711;28;20418;-72
2022/10/10 02:09:38;;;;;;;20.17;13.97;;;;;;;40.23;34.76;101079.06;5131731;28;20454;-72
2022/10/10 02:12:07;;;;;;;22.60;15.13;;;;;;;40.35;34.76;101078.44;5134260;27;20446;-71
2022/10/10 02:14:46;;;;;;;21.80;14.30;;;;;;;40.39;34.58;101073.16;5135085;27;20471;-71
2022/10/10 02:17:14;;;;;;;24.73;16.13;;;;;;;40.39;34.98;101078.59;5135200;27;20583;-71
2022/10/10 02:19:52;;;;;;;23.20;12.10;;;;;;;40.39;35.05;101092.19;5135293;27;20466;-71
2022/10/10 02:22:21;;;;;;;19.77;13.90;;;;;;;40.25;35.13;101090.41;5135214;27;20430;-71
2022/10/10 02:24:47;;;;;;;17.20;12.77;;;;;;;39.92;35.51;101089.19;5135096;27;20946;-71
2022/10/10 02:27:29;;;;;;;18.63;12.67;;;;;;;40.10;35.19;101087.34;5134986;27;20419;-72
2022/10/10 02:29:58;;;;;;;21.20;13.40;;;;;;;40.15;34.72;101090.72;5135020;27;20450;-71
2022/10/10 02:32:48;;;;;;;23.27;13.47;;;;;;;40.25;35.21;101087.69;5134898;27;20470;-71
2022/10/10 02:35:21;;;;;;;21.63;12.30;;;;;;;40.36;34.71;101088.19;5134837;27;20486;-71
2022/10/10 02:37:48;;;;;;;22.47;14.37;;;;;;;40.36;34.61;101092.84;5134853;27;20776;-71
2022/10/10 02:40:21;;;;;;;20.97;13.93;;;;;;;40.15;34.63;101085.28;5134808;27;20435;-71
2022/10/10 02:42:49;;;;;;;23.23;12.10;;;;;;;40.15;34.38;101085.28;5134653;27;20480;-71
2022/10/10 02:45:16;;;;;;;23.77;13.27;;;;;;;40.16;34.58;101084.19;5135053;27;20782;-71
2022/10/10 02:47:43;;;;;;;23.50;16.97;;;;;;;40.14;34.55;101091.03;5136323;27;20472;-71
2022/10/10 02:50:09;;;;;;;61.70;37.13;;;;;;;40.10;34.70;101081.91;5134630;27;20498;-71
2022/10/10 02:52:35;;;;;;;75.40;47.30;;;;;;;40.25;34.55;101084.97;5134631;27;20418;-71
2022/10/10 02:55:01;;;;;;;55.23;35.40;;;;;;;40.38;34.56;101091.38;5134415;27;20474;-71
2022/10/10 02:57:27;;;;;;;40.70;28.97;;;;;;;40.46;34.18;101100.69;5134521;27;20798;-71
2022/10/10 02:59:53;;;;;;;29.30;23.00;;;;;;;40.50;34.40;101097.03;5134422;27;20415;-71
2022/10/10 03:02:19;;;;;;;26.13;19.30;;;;;;;40.53;34.21;101099.13;5134455;27;20439;-71
2022/10/10 03:04:45;;;;;;;22.50;16.97;;;;;;;40.54;33.99;101091.78;5134364;27;20422;-71
2022/10/10 03:07:11;;;;;;;26.03;17.47;;;;;;;40.58;33.91;101097.34;5134264;27;20415;-71
2022/10/10 03:09:37;;;;;;;22.33;18.97;;;;;;;40.44;34.35;101101.00;5134283;27;20467;-71
2022/10/10 03:12:04;;;;;;;26.30;18.50;;;;;;;40.55;33.90;101101.53;5134083;27;20423;-71
2022/10/10 03:14:30;;;;;;;27.00;22.03;;;;;;;40.42;34.25;101092.38;5133970;27;20478;-71
2022/10/10 03:16:56;;;;;;;35.03;24.70;;;;;;;40.51;34.18;101086.94;5134069;27;20480;-72
2022/10/10 03:19:22;;;;;;;30.97;25.23;;;;;;;40.59;33.89;101082.66;5134009;27;20475;-71
2022/10/10 03:21:48;;;;;;;32.33;24.57;;;;;;;40.63;34.01;101087.13;5133997;27;20559;-71
2022/10/10 03:24:14;;;;;;;30.43;18.37;;;;;;;40.65;33.59;101092.25;5133693;27;20414;-71
2022/10/10 03:26:40;;;;;;;24.10;19.70;;;;;;;40.62;33.75;101082.81;5135688;27;20420;-71
2022/10/10 03:29:07;;;;;;;22.27;19.80;;;;;;;40.50;33.72;101093.50;5134014;27;20422;-71
2022/10/10 03:31:33;;;;;;;31.33;19.20;;;;;;;40.06;34.83;101084.47;5135075;27;20423;-72
2022/10/10 03:33:59;;;;;;;24.30;16.80;;;;;;;40.14;34.56;101078.22;5133702;27;20494;-71
2022/10/10 03:36:26;;;;;;;26.83;18.27;;;;;;;40.14;34.47;101078.22;5135338;27;20532;-71
2022/10/10 03:38:52;;;;;;;25.17;18.03;;;;;;;40.14;35.06;101075.53;5116757;27;20906;-71
2022/10/10 03:41:18;;;;;;;28.87;18.37;;;;;;;39.97;34.95;101072.75;5133487;27;20423;-71
2022/10/10 03:43:44;;;;;;;24.87;17.67;;;;;;;39.96;35.03;101076.56;5133468;27;20422;-71
2022/10/10 03:46:10;;;;;;;22.67;16.70;;;;;;;40.27;34.73;101073.81;5133492;27;20484;-71
2022/10/10 03:48:36;;;;;;;24.00;16.43;;;;;;;40.41;34.53;101070.94;5133513;27;20506;-71
2022/10/10 03:51:02;;;;;;;21.30;16.53;;;;;;;40.44;34.29;101062.13;5135056;27;20864;-71
2022/10/10 03:53:28;;;;;;;25.93;16.03;;;;;;;40.45;33.96;101056.38;5133300;27;20458;-71
2022/10/10 03:55:54;;;;;;;23.33;15.97;;;;;;;40.49;34.15;101070.16;5133638;27;20438;-71
2022/10/10 03:58:20;;;;;;;24.07;14.90;;;;;;;40.44;34.50;101064.84;5133336;27;20415;-71
2022/10/10 04:00:58;;;;;;;21.10;14.23;;;;;;;40.48;34.28;101072.09;5133316;27;20412;-71
2022/10/10 04:03:25;;;;;;;28.23;16.80;;;;;;;40.50;34.06;101075.28;5133333;27;20489;-72
2022/10/10 04:05:51;;;;;;;26.50;16.13;;;;;;;40.51;34.23;101078.78;5133202;27;20419;-71
2022/10/10 04:08:18;;;;;;;25.43;16.90;;;;;;;40.44;34.11;101073.00;5134618;27;20786;-72
2022/10/10 04:10:48;;;;;;;25.17;16.30;;;;;;;40.52;33.87;101070.34;5133407;27;20438;-71
2022/10/10 04:13:14;;;;;;;22.80;15.00;;;;;;;40.44;34.17;101075.72;5134350;27;20396;-71
2022/10/10 04:15:40;;;;;;;35.90;18.27;;;;;;;40.25;34.25;101070.59;5134548;27;20518;-71
2022/10/10 04:18:06;;;;;;;26.37;15.83;;;;;;;40.41;34.23;101076.38;5132987;27;20427;-71
2022/10/10 04:20:32;;;;;;;26.70;17.10;;;;;;;40.46;34.16;101074.31;5132814;27;20510;-71
2022/10/10 04:22:58;;;;;;;29.77;16.57;;;;;;;40.49;34.26;101075.59;5132926;27;20450;-71
2022/10/10 04:25:24;;;;;;;29.60;16.33;;;;;;;40.51;34.27;101076.06;5132628;27;20513;-71
2022/10/10 04:27:50;;;;;;;25.87;18.73;;;;;;;40.50;33.81;101080.72;5132777;27;20479;-71
2022/10/10 04:30:17;;;;;;;28.73;17.93;;;;;;;40.47;33.98;101089.53;5133033;27;20426;-71
2022/10/10 04:32:43;;;;;;;28.30;17.60;;;;;;;40.44;33.94;101090.13;5132599;27;20987;-71
2022/10/10 04:35:09;;;;;;;25.33;17.47;;;;;;;40.37;34.08;101094.44;5132118;27;20482;-71
2022/10/10 04:37:36;;;;;;;28.77;19.90;;;;;;;40.39;34.50;101097.63;5132573;27;20427;-71
2022/10/10 04:40:03;;;;;;;37.30;18.93;;;;;;;40.48;34.39;101106.63;5134178;27;20940;-71
2022/10/10 04:42:29;;;;;;;28.93;21.20;;;;;;;40.46;34.16;101109.66;5132473;27;20419;-71
2022/10/10 04:44:55;;;;;;;33.07;20.90;;;;;;;40.47;34.33;101121.31;5134089;27;20411;-71
2022/10/10 04:47:21;;;;;;;45.87;30.80;;;;;;;40.50;33.95;101118.78;5132414;27;20411;-72
2022/10/10 04:49:47;;;;;;;39.37;25.57;;;;;;;40.55;34.02;101131.44;5134060;27;20429;-72
2022/10/10 04:52:13;;;;;;;41.30;27.37;;;;;;;40.55;33.91;101132.22;5132383;27;20494;-72
2022/10/10 04:54:39;;;;;;;38.80;26.30;;;;;;;40.49;34.03;101128.06;5132255;27;20516;-72
2022/10/10 04:57:06;;;;;;;33.43;25.40;;;;;;;40.53;34.19;101133.69;5133914;27;20406;-72
2022/10/10 04:59:32;;;;;;;39.03;24.60;;;;;;;40.54;33.93;101138.78;5133948;27;20463;-71
2022/10/10 05:01:58;;;;;;;37.77;26.77;;;;;;;40.56;34.27;101135.75;5133863;27;20455;-71
2022/10/10 05:04:25;;;;;;;43.93;27.10;;;;;;;40.59;33.70;101137.03;5132195;27;20467;-72
2022/10/10 05:06:51;;;;;;;45.07;28.87;;;;;;;40.55;34.09;101145.81;5133949;27;20407;-73
2022/10/10 05:09:17;;;;;;;50.53;29.93;;;;;;;40.61;33.60;101148.41;5132943;28;20989;-72
2022/10/10 05:11:43;;;;;;;75.40;44.17;;;;;;;40.58;34.04;101144.41;5131974;28;20840;-73
2022/10/10 05:14:09;;;;;;;66.17;40.67;;;;;;;40.60;33.78;101150.31;5131792;28;20482;-72
2022/10/10 05:16:35;;;;;;;67.10;39.07;;;;;;;40.60;33.77;101158.47;5133849;27;20947;-73
2022/10/10 05:19:01;;;;;;;73.60;41.70;;;;;;;40.59;33.67;101159.59;5131885;28;20412;-72
2022/10/10 05:21:27;;;;;;;43.63;35.50;;;;;;;40.60;33.75;101171.28;5131952;28;20563;-72
2022/10/10 05:23:54;;;;;;;44.73;37.47;;;;;;;40.61;33.83;101173.66;5133763;27;20871;-72
2022/10/10 05:26:20;;;;;;;47.43;34.10;;;;;;;40.62;33.57;101180.69;5134317;27;20625;-72
2022/10/10 05:28:47;;;;;;;46.77;34.23;;;;;;;40.63;33.78;101186.94;5129065;28;20423;-71
2022/10/10 05:31:13;;;;;;;37.33;28.93;;;;;;;40.58;33.98;101185.19;5131948;28;20443;-71
2022/10/10 05:33:39;;;;;;;38.73;30.17;;;;;;;40.57;33.90;101190.94;5131719;28;21001;-71
2022/10/10 05:36:11;;;;;;;35.33;24.23;;;;;;;40.50;34.05;101199.56;5125348;28;20785;-71
2022/10/10 05:38:38;;;;;;;34.10;25.10;;;;;;;40.49;33.95;101197.94;5116773;28;20470;-71
2022/10/10 05:41:04;;;;;;;35.10;24.80;;;;;;;40.54;33.88;101200.53;5111382;28;20443;-71
2022/10/10 05:43:30;;;;;;;41.77;27.07;;;;;;;40.54;34.17;101198.59;5111226;28;20419;-71
2022/10/10 05:45:56;;;;;;;28.60;23.40;;;;;;;40.51;33.63;101201.94;5114537;28;20900;-71
2022/10/10 05:48:23;;;;;;;36.03;24.70;;;;;;;40.54;33.81;101209.50;5115268;28;20460;-73
2022/10/10 05:50:51;;;;;;;38.73;25.20;;;;;;;40.60;34.02;101206.63;5115184;28;20939;-72
2022/10/10 05:53:18;;;;;;;56.83;40.07;;;;;;;40.67;33.87;101209.69;5117734;27;20424;-70
2022/10/10 05:55:44;;;;;;;70.10;46.80;;;;;;;40.72;33.88;101212.25;5115203;28;20510;-70
2022/10/10 05:58:12;;;;;;;61.80;41.87;;;;;;;40.67;33.59;101206.97;5115145;28;20582;-68
2022/10/10 06:00:39;;;;;;;46.23;36.20;;;;;;;40.70;34.08;101214.47;5120027;27;20480;-70
2022/10/10 06:03:07;;;;;;;50.70;37.13;;;;;;;40.74;33.53;101215.44;5120263;27;20450;-68
2022/10/10 06:05:33;;;;;;;49.17;40.07;;;;;;;40.76;33.70;101213.19;5123742;27;20419;-69
2022/10/10 06:07:59;;;;;;;51.00;37.17;;;;;;;40.77;34.01;101207.47;5124694;27;20980;-69
2022/10/10 06:10:25;;;;;;;47.70;37.20;;;;;;;40.81;33.72;101213.84;5120679;27;20427;-68
2022/10/10 06:12:53;;;;;;;52.73;38.40;;;;;;;40.76;33.97;101203.16;5118800;27;20443;-69
2022/10/10 06:15:19;;;;;;;56.10;39.30;;;;;;;40.85;33.36;101203.13;5115829;28;20471;-70
2022/10/10 06:17:45;;;;;;;52.13;37.60;;;;;;;40.88;33.60;101210.66;5126417;27;20427;-70
2022/10/10 06:20:11;;;;;;;51.07;37.00;;;;;;;40.93;33.68;101212.44;5135195;27;20874;-71
2022/10/10 06:22:37;;;;;;;46.87;37.00;;;;;;;40.90;33.69;101205.75;5136796;27;20949;-74
2022/10/10 06:25:04;;;;;;;35.53;26.37;;;;;;;41.00;33.34;101218.22;5135149;27;20449;-70
2022/10/10 06:27:30;;;;;;;55.23;38.67;;;;;;;41.14;33.04;101215.38;5118368;27;20439;-73
2022/10/10 06:29:56;;;;;;;51.00;35.60;;;;;;;41.23;33.00;101224.31;5114032;28;20807;-70
2022/10/10 06:32:22;;;;;;;57.97;41.60;;;;;;;41.22;33.14;101215.34;5120115;27;20465;-70
2022/10/10 06:34:48;;;;;;;51.10;40.33;;;;;;;41.23;33.31;101216.94;5123605;27;20455;-70
2022/10/10 06:37:14;;;;;;;54.93;39.53;;;;;;;41.24;33.34;101215.81;5125214;27;20423;-70
2022/10/10 06:39:40;;;;;;;50.20;38.03;;;;;;;41.33;32.83;101224.03;5122654;27;20463;-71
2022/10/10 06:42:06;;;;;;;53.93;39.43;;;;;;;41.39;32.69;101230.91;5123010;27;20423;-70
2022/10/10 06:44:32;;;;;;;56.30;42.23;;;;;;;41.43;32.80;101229.13;5124409;27;20983;-71
2022/10/10 06:46:58;;;;;;;56.37;40.20;;;;;;;41.43;32.97;101241.94;5123172;27;20443;-71
2022/10/10 06:49:24;;;;;;;43.30;37.50;;;;;;;41.45;32.79;101237.78;5120232;27;20453;-71
2022/10/10 06:51:50;;;;;;;50.60;38.40;;;;;;;41.48;32.93;101247.22;5121231;27;20978;-70
2022/10/10 06:54:16;;;;;;;59.03;43.73;;;;;;;41.52;32.68;101250.91;5121401;27;20467;-72
2022/10/10 06:56:42;;;;;;;58.23;43.60;;;;;;;41.56;32.75;101246.44;5122434;27;20422;-70
2022/10/10 06:59:08;;;;;;;62.80;44.13;;;;;;;41.55;32.75;101244.81;5121306;27;20418;-70
2022/10/10 07:01:35;;;;;;;60.80;42.50;;;;;;;41.50;32.86;101255.91;5122638;27;20468;-70
2022/10/10 07:04:01;;;;;;;49.83;37.00;;;;;;;41.42;33.14;101259.41;5125830;27;20434;-70
2022/10/10 07:06:27;;;;;;;49.07;40.53;;;;;;;41.30;33.13;101254.56;5124764;27;20543;-70
2022/10/10 07:08:53;;;;;;;52.30;43.47;;;;;;;41.39;33.43;101257.34;5124804;27;20432;-70
2022/10/10 07:11:19;;;;;;;48.23;39.10;;;;;;;41.46;33.30;101247.56;5124131;27;20461;-70
2022/10/10 07:13:45;;;;;;;43.17;36.23;;;;;;;41.50;33.21;101253.16;5124306;27;20558;-70
2022/10/10 07:16:11;;;;;;;53.53;39.97;;;;;;;41.54;33.03;101262.28;5122104;27;20971;-70
2022/10/10 07:18:37;;;;;;;45.77;35.53;;;;;;;41.63;33.05;101268.53;5123238;27;20416;-72
2022/10/10 07:21:04;;;;;;;44.17;32.43;;;;;;;41.75;32.66;101276.09;5116816;27;20872;-70
2022/10/10 07:23:31;;;;;;;47.03;30.20;;;;;;;41.74;33.09;101269.84;5117000;27;20405;-70
2022/10/10 07:26:06;;;;;;;39.07;30.77;;;;;;;41.72;32.84;101271.22;5131593;27;20430;-70
2022/10/10 07:28:32;;;;;;;41.03;29.93;;;;;;;41.80;32.48;101268.50;5113340;28;20411;-69
2022/10/10 07:31:01;;;;;;;37.07;27.80;;;;;;;41.82;32.75;101271.72;5113667;28;20935;-70
2022/10/10 07:33:32;;;;;;;33.87;24.20;;;;;;;41.85;32.43;101270.28;5120568;27;20427;-70
2022/10/10 07:35:58;;;;;;;38.53;23.10;;;;;;;41.86;32.48;101269.94;5121411;27;20459;-70
2022/10/10 07:38:25;;;;;;;30.80;19.60;;;;;;;41.94;32.39;101278.44;5123097;27;20407;-70
2022/10/10 07:40:51;;;;;;;35.80;24.60;;;;;;;41.95;32.17;101289.00;5121435;27;20927;-70
2022/10/10 07:43:18;;;;;;;35.40;25.17;;;;;;;42.02;31.95;101291.25;5120841;27;20408;-70
2022/10/10 07:45:44;;;;;;;34.10;26.00;;;;;;;42.09;32.28;101292.34;5120688;27;20507;-70
2022/10/10 07:48:10;;;;;;;47.63;33.63;;;;;;;42.08;31.89;101293.47;5122206;27;20805;-71
2022/10/10 07:50:40;;;;;;;42.07;35.87;;;;;;;42.12;31.75;101299.88;5123678;27;20404;-70
2022/10/10 07:53:08;;;;;;;62.97;40.70;;;;;;;42.09;31.86;101305.97;5120907;27;20443;-70
2022/10/10 07:55:34;;;;;;;69.43;41.20;;;;;;;42.12;32.07;101302.59;5121329;27;20473;-70
2022/10/10 07:58:02;;;;;;;55.20;38.83;;;;;;;42.11;31.94;101311.06;5122637;27;20420;-70
2022/10/10 08:00:29;;;;;;;55.73;34.83;;;;;;;42.08;32.11;101312.53;5124238;27;20428;-70
2022/10/10 08:02:55;;;;;;;48.93;34.00;;;;;;;42.03;32.22;101318.16;5104144;27;20794;-71
2022/10/10 08:05:21;;;;;;;46.30;30.83;;;;;;;41.96;32.56;101320.59;5114109;27;20509;-71
2022/10/10 08:07:47;;;;;;;37.00;29.00;;;;;;;41.96;32.01;101312.41;5121088;27;20439;-71
2022/10/10 08:10:14;;;;;;;39.70;27.63;;;;;;;41.97;32.10;101326.84;5121267;27;20450;-70
2022/10/10 08:12:40;;;;;;;34.37;24.53;;;;;;;42.04;32.10;101325.19;5123196;27;20421;-70
2022/10/10 08:15:06;;;;;;;27.77;23.37;;;;;;;42.04;32.17;101330.66;5113533;28;20475;-71
2022/10/10 08:17:37;;;;;;;28.10;20.13;;;;;;;42.12;31.55;101334.50;5112393;28;20431;-71
2022/10/10 08:20:04;;;;;;;24.97;17.77;;;;;;;42.14;31.73;101348.59;5112418;28;20454;-72
2022/10/10 08:22:30;;;;;;;27.83;17.43;;;;;;;42.10;31.74;101351.16;5112319;28;20416;-72
2022/10/10 08:24:56;;;;;;;31.03;16.57;;;;;;;42.17;32.05;101361.59;5095385;28;20448;-72
2022/10/10 08:27:23;;;;;;;25.30;18.73;;;;;;;42.24;31.29;101361.94;5112567;28;20434;-72
2022/10/10 08:29:49;;;;;;;27.87;18.10;;;;;;;42.26;31.50;101354.22;5112140;28;20436;-72
2022/10/10 08:32:15;;;;;;;31.63;22.83;;;;;;;42.25;31.52;101358.06;5113968;28;20414;-71
2022/10/10 08:34:41;;;;;;;26.57;17.70;;;;;;;42.34;31.51;101366.22;5111818;28;20939;-71
2022/10/10 08:37:07;;;;;;;23.03;16.60;;;;;;;42.37;31.39;101371.03;5110420;28;20844;-71
2022/10/10 08:39:33;;;;;;;25.30;15.17;;;;;;;42.33;31.76;101368.16;5111529;28;21179;-72
2022/10/10 08:42:01;;;;;;;24.57;13.63;;;;;;;42.42;31.66;101365.41;5109955;28;20783;-72
2022/10/10 08:44:42;;;;;;;21.83;14.03;;;;;;;42.52;31.52;101372.41;5110013;28;20550;-72
2022/10/10 08:47:08;;;;;;;24.30;15.10;;;;;;;42.55;31.47;101363.59;5111567;28;20431;-71
2022/10/10 08:49:38;;;;;;;22.07;14.27;;;;;;;42.54;31.10;101370.97;5110201;28;20471;-71
2022/10/10 08:52:20;;;;;;;17.30;12.30;;;;;;;42.56;31.12;101376.91;5111220;28;20412;-70
2022/10/10 08:54:47;;;;;;;21.60;10.60;;;;;;;42.54;30.93;101368.25;5111778;28;20888;-70
2022/10/10 08:57:28;;;;;;;16.37;10.27;;;;;;;42.54;31.32;101379.16;5112040;28;20416;-71
2022/10/10 08:59:58;;;;;;;15.07;9.67;;;;;;;42.53;31.29;101385.72;5111760;28;20439;-71
2022/10/10 09:02:31;;;;;;;15.67;9.70;;;;;;;42.61;31.25;101389.59;5111668;28;20446;-71
2022/10/10 09:04:57;;;;;;;18.77;10.70;;;;;;;42.48;31.45;101387.81;5111743;28;20415;-71
2022/10/10 09:07:36;;;;;;;13.67;9.43;;;;;;;42.55;31.28;101401.78;5112085;28;20416;-70
2022/10/10 09:10:22;;;;;;;16.37;9.47;;;;;;;42.47;31.58;101403.41;5111688;28;20504;-72
2022/10/10 09:13:17;;;;;;;12.43;8.27;;;;;;;42.68;31.30;101400.00;5111655;28;20412;-71
2022/10/10 09:15:55;;;;;;;16.27;10.03;;;;;;;42.69;31.50;101405.13;5111610;28;20428;-72
2022/10/10 09:18:30;;;;;;;19.63;8.20;;;;;;;42.88;31.14;101410.19;5111538;28;20803;-71
2022/10/10 09:21:19;;;;;;;16.90;8.50;;;;;;;42.91;30.84;101412.28;5115971;28;20906;-70
2022/10/10 09:23:58;;;;;;;11.50;9.23;;;;;;;42.94;31.15;101425.25;5115689;28;20845;-70
2022/10/10 09:26:30;;;;;;;15.07;8.73;;;;;;;43.07;30.93;101412.53;5098735;28;20473;-71
2022/10/10 09:29:14;;;;;;;11.87;6.67;;;;;;;43.18;30.86;101411.81;5115772;28;20958;-71
2022/10/10 09:31:48;;;;;;;17.83;9.53;;;;;;;43.28;30.54;101416.13;5115499;28;20569;-71
2022/10/10 09:34:42;;;;;;;17.83;9.63;;;;;;;43.05;30.69;101420.25;5116198;28;20447;-70
2022/10/10 09:37:37;;;;;;;15.67;9.43;;;;;;;42.85;30.85;101408.94;5115618;28;20408;-70
2022/10/10 09:40:14;;;;;;;15.80;8.70;;;;;;;42.87;31.49;101414.84;5111991;28;20481;-70
2022/10/10 09:42:43;;;;;;;19.50;9.57;;;;;;;43.02;30.75;101412.72;5128736;27;20441;-70
2022/10/10 09:45:13;;;;;;;17.17;8.37;;;;;;;43.08;30.88;101414.13;5135937;27;20415;-70
2022/10/10 09:47:40;;;;;;;14.50;9.57;;;;;;;43.01;31.06;101417.38;5135904;27;20529;-70
2022/10/10 09:50:06;;;;;;;17.30;10.67;;;;;;;43.14;30.98;101419.06;5135776;27;20453;-71
2022/10/10 09:52:32;;;;;;;21.10;10.40;;;;;;;43.16;31.03;101425.00;5137531;27;20418;-70
2022/10/10 09:55:03;;;;;;;20.13;10.30;;;;;;;43.26;30.73;101434.75;5136211;27;20486;-71
2022/10/10 09:57:39;;;;;;;18.13;9.10;;;;;;;43.20;30.62;101427.88;5135790;27;20498;-70
2022/10/10 10:00:18;;;;;;;13.83;8.83;;;;;;;43.28;30.94;101429.78;5118839;27;20411;-71
2022/10/10 10:02:47;;;;;;;13.00;9.07;;;;;;;43.32;30.94;101424.44;5137160;27;20950;-70
2022/10/10 10:05:25;;;;;;;12.83;9.67;;;;;;;43.32;30.98;101430.69;5137131;27;20910;-71
2022/10/10 10:07:51;;;;;;;16.50;9.90;;;;;;;43.39;30.69;101431.00;5118604;27;20517;-72
2022/10/10 10:10:24;;;;;;;19.60;9.93;;;;;;;43.52;30.66;101429.13;5137051;27;20837;-72
2022/10/10 10:12:51;;;;;;;19.10;11.57;;;;;;;43.51;30.94;101424.00;5136954;27;20438;-70
2022/10/10 10:15:22;;;;;;;19.57;10.73;;;;;;;43.57;30.90;101425.41;5135204;27;21069;-70
2022/10/10 10:18:10;;;;;;;18.43;10.57;;;;;;;43.20;31.11;101422.41;5135312;27;20415;-70
2022/10/10 10:20:39;;;;;;;16.77;10.30;;;;;;;43.44;30.67;101408.94;5136806;27;20436;-72
2022/10/10 10:23:22;;;;;;;18.90;11.13;;;;;;;43.52;30.96;101407.28;5135301;27;20410;-72
2022/10/10 10:26:05;;;;;;;16.50;11.10;;;;;;;43.63;30.86;101413.16;5135271;27;20439;-70
2022/10/10 10:28:38;;;;;;;14.53;10.63;;;;;;;43.67;30.89;101397.69;5135174;27;20498;-72
2022/10/10 10:31:05;;;;;;;19.83;10.90;;;;;;;43.82;30.87;101394.38;5134828;27;20502;-72
2022/10/10 10:33:34;;;;;;;17.67;11.07;;;;;;;43.65;30.45;101389.06;5136214;27;20394;-72
2022/10/10 10:36:12;;;;;;;17.50;11.63;;;;;;;43.74;30.47;101388.97;5134895;27;20414;-72
2022/10/10 10:38:51;;;;;;;21.93;10.63;;;;;;;43.80;30.23;101384.94;5134975;27;20414;-72
2022/10/10 10:41:27;;;;;;;17.40;10.90;;;;;;;43.69;30.45;101381.75;5136512;27;20387;-71
2022/10/10 10:43:53;;;;;;;14.67;9.10;;;;;;;43.41;31.34;101376.84;5134723;27;20403;-71
2022/10/10 10:46:54;;;;;;;15.77;9.10;;;;;;;43.65;30.82;101370.72;5134742;27;20411;-70
2022/10/10 10:49:35;;;;;;;14.73;9.87;;;;;;;43.75;30.75;101363.22;5091633;27;20816;-72
2022/10/10 10:52:12;;;;;;;16.13;10.03;;;;;;;43.77;31.14;101359.06;5134589;27;20415;-71
2022/10/10 10:55:07;;;;;;;19.57;10.60;;;;;;;43.92;30.55;101355.69;5134479;27;20944;-70
2022/10/10 10:57:58;;;;;;;17.70;10.70;;;;;;;43.69;31.04;101357.19;5132348;27;20447;-72
2022/10/10 11:00:24;;;;;;;17.83;12.67;;;;;;;43.82;31.01;101353.38;5136110;27;20435;-72
2022/10/10 11:03:02;;;;;;;17.17;11.27;;;;;;;43.82;30.62;101347.91;5134391;27;20418;-71
2022/10/10 11:05:31;;;;;;;18.73;10.47;;;;;;;43.71;31.12;101353.00;5128058;27;20830;-74
2022/10/10 11:08:15;;;;;;;16.73;10.87;;;;;;;43.54;31.47;101353.13;5124287;27;20464;-74
2022/10/10 11:10:59;;;;;;;14.60;11.47;;;;;;;43.60;31.07;101342.81;5123380;27;20411;-74
2022/10/10 11:14:07;;;;;;;16.43;10.77;;;;;;;43.53;31.13;101332.41;5123969;27;20431;-74
2022/10/10 11:16:44;;;;;;;18.40;11.30;;;;;;;43.76;31.13;101330.09;5051512;28;20480;-73
2022/10/10 11:19:10;;;;;;;16.93;10.00;;;;;;;43.83;31.12;101322.22;5113578;27;20431;-73
2022/10/10 11:22:02;;;;;;;18.00;11.60;;;;;;;43.83;30.60;101329.56;5125631;27;20448;-73
2022/10/10 11:24:37;;;;;;;15.67;9.50;;;;;;;43.68;30.72;101323.59;5125642;27;20530;-73